Thorco Attraction — V2BS1 — position and weather

sailwx.info

Track history (hours):
 
Tides and Currents Weather Stations Pressure Air Temp Water Temp Dewpoint Dewpoint Depression Visibility Wind Speed Wind Dir Waves Ship Positions

Thorco Attraction

Last reported at 2016-Jan-19 20:13 UTC. Time now 2016-Feb-12 16:12 UTC.
Position N 35°58' W 005°36'.
Warning: this ship's position is 23 days out of date.

Length 132 m; draft 6.8 m.

Type: Ship (hazmat cat C). MMSI: 304908000.

Date/timePositionNaut miles runAvg speedWind from/ knotsBaromVisibWave heightAir tempDewpointWater temp
2016-Jan-19 20:13N 35°58' W 005°36'811.5
2016-Jan-19 19:33N 36°00' W 005°27'8 7.6
2016-Jan-19 18:30N 36°07' W 005°21'0 0.2
2016-Jan-19 17:33N 36°07' W 005°21'0 0.0
2016-Jan-19 11:21N 36°07' W 005°21'1 0.3
2016-Jan-19 09:24N 36°06' W 005°22'6 7.3
2016-Jan-19 08:33N 36°07' W 005°14'1 1.2
2016-Jan-19 07:33N 36°07' W 005°13'1 0.7
2016-Jan-19 06:33N 36°06' W 005°13'121 9.9
2016-Jan-18 18:21N 36°22' W 002°44'10 9.7
2016-Jan-18 17:22N 36°23' W 002°33'  
2016-Jan-15 03:33N 36°50' E 013°42'1313.3
2016-Jan-15 02:33N 36°46' E 013°58'1413.5
2016-Jan-15 01:33N 36°42' E 014°14'1312.8
2016-Jan-15 00:33N 36°38' E 014°30'  
Track history (hours):
 
Tides and Currents Weather Stations Pressure Air Temp Water Temp Dewpoint Dewpoint Depression Visibility Wind Speed Wind Dir Waves Ship Positions

Thorco Attraction

Last reported at 2016-Jan-19 20:13 UTC. Time now 2016-Feb-12 16:12 UTC.
Position N 35°58' W 005°36'.
Warning: this ship's position is 23 days out of date.

Length 132 m; draft 6.8 m.

Type: Ship (hazmat cat C). MMSI: 304908000.

Date/timePositionNaut miles runAvg speedWind from/ knotsBaromVisibWave heightAir tempDewpointWater temp
2016-Jan-19 20:13N 35°58' W 005°36'811.5
2016-Jan-19 19:33N 36°00' W 005°27'8 7.6
2016-Jan-19 18:30N 36°07' W 005°21'0 0.2
2016-Jan-19 17:33N 36°07' W 005°21'0 0.0
2016-Jan-19 11:21N 36°07' W 005°21'1 0.3
2016-Jan-19 09:24N 36°06' W 005°22'6 7.3
2016-Jan-19 08:33N 36°07' W 005°14'1 1.2
2016-Jan-19 07:33N 36°07' W 005°13'1 0.7
2016-Jan-19 06:33N 36°06' W 005°13'121 9.9
2016-Jan-18 18:21N 36°22' W 002°44'10 9.7
2016-Jan-18 17:22N 36°23' W 002°33'  
2016-Jan-15 03:33N 36°50' E 013°42'1313.3
2016-Jan-15 02:33N 36°46' E 013°58'1413.5
2016-Jan-15 01:33N 36°42' E 014°14'1312.8
2016-Jan-15 00:33N 36°38' E 014°30'  

Dump ship's entire track history